Time;durP1;ratioP1;P1;durP2;ratioP2;P2;SDS_P1;SDS_P2;PMS_P1;PMS_P2;Temp;Humidity;BMP_temperature;BMP_pressure;BME280_temperature;BME280_humidity;BME280_pressure;Samples;Min_cycle;Max_cycle;Signal;HPM_P1;HPM_P2
2023/10/09 00:02:53;;;;;;;0.50;0.50;;;15.50;99.90;;;;;;5004624;28;20095;-63
2023/10/09 00:05:27;;;;;;;0.15;0.15;;;15.40;99.90;;;;;;5008560;28;20046;-63
2023/10/09 00:07:56;;;;;;;0.40;0.40;;;15.40;99.90;;;;;;5007504;28;20042;-63
2023/10/09 00:10:22;;;;;;;0.50;0.50;;;15.50;99.90;;;;;;5003025;28;20042;-63
2023/10/09 00:12:49;;;;;;;0.30;0.30;;;15.50;99.90;;;;;;5000728;28;20108;-63
2023/10/09 00:15:17;;;;;;;2.58;0.90;;;15.50;99.90;;;;;;5002065;28;20045;-63
2023/10/09 00:17:46;;;;;;;1.33;1.23;;;15.50;99.90;;;;;;5001560;28;20046;-63
2023/10/09 00:20:20;;;;;;;1.23;1.17;;;15.50;99.90;;;;;;5009841;28;20076;-63
2023/10/09 00:22:46;;;;;;;0.52;0.52;;;15.50;99.90;;;;;;5003863;28;20552;-63
2023/10/09 00:25:12;;;;;;;0.90;0.68;;;15.50;99.90;;;;;;5006874;28;20070;-63
2023/10/09 00:27:42;;;;;;;0.55;0.55;;;15.50;99.90;;;;;;4997019;28;20058;-64
2023/10/09 00:30:21;;;;;;;2.40;0.40;;;15.50;99.90;;;;;;4999449;28;20528;-63
2023/10/09 00:33:00;;;;;;;4.47;0.98;;;15.50;99.90;;;;;;5000969;28;20096;-63
2023/10/09 00:35:36;;;;;;;0.10;0.10;;;15.50;99.90;;;;;;5007910;28;20543;-63
2023/10/09 00:38:22;;;;;;;3.08;1.48;;;15.40;99.90;;;;;;5008264;28;20481;-63
2023/10/09 00:41:35;;;;;;;0.30;0.30;;;15.50;99.90;;;;;;4999878;28;20053;-63
2023/10/09 00:43:42;;;;;;;0.60;0.50;;;15.50;99.90;;;;;;4999344;28;20049;-63
2023/10/09 00:48:48;;;;;;;0.43;0.43;;;15.40;99.90;;;;;;5001437;28;20050;-63
2023/10/09 00:51:16;;;;;;;1.10;1.10;;;15.40;99.90;;;;;;5003413;28;20055;-63
2023/10/09 00:53:50;;;;;;;0.10;0.10;;;15.40;99.90;;;;;;5009011;28;20077;-63
2023/10/09 00:56:19;;;;;;;1.42;1.20;;;15.40;99.90;;;;;;5002097;28;21107;-63
2023/10/09 00:58:55;;;;;;;0.20;0.20;;;15.40;99.90;;;;;;5004003;28;20042;-63
2023/10/09 01:01:26;;;;;;;0.88;0.73;;;15.40;99.90;;;;;;4998673;28;20135;-63
2023/10/09 01:03:51;;;;;;;1.55;1.38;;;15.40;99.90;;;;;;5004259;28;20041;-63
2023/10/09 01:06:21;;;;;;;0.93;0.70;;;15.40;99.90;;;;;;5006694;28;20049;-63
2023/10/09 01:11:31;;;;;;;0.55;0.55;;;15.40;99.90;;;;;;5002723;28;20394;-63
2023/10/09 01:14:11;;;;;;;0.38;0.35;;;15.40;99.90;;;;;;5002721;28;20444;-63
2023/10/09 01:16:38;;;;;;;0.52;0.50;;;15.40;99.90;;;;;;5005015;28;20049;-63
2023/10/09 01:19:12;;;;;;;0.10;0.10;;;15.40;99.90;;;;;;4996194;28;20443;-63
2023/10/09 01:21:39;;;;;;;0.10;0.10;;;15.40;99.90;;;;;;4998445;28;20053;-63
2023/10/09 01:24:08;;;;;;;1.38;1.00;;;15.30;99.90;;;;;;5009296;28;20058;-64
2023/10/09 01:26:47;;;;;;;1.75;0.98;;;15.40;99.90;;;;;;5000460;28;20401;-63
2023/10/09 01:29:20;;;;;;;0.35;0.35;;;15.30;99.90;;;;;;5003894;28;20140;-63
2023/10/09 01:31:54;;;;;;;0.22;0.22;;;15.40;99.90;;;;;;5006170;28;20068;-64
2023/10/09 01:34:41;;;;;;;0.65;0.57;;;15.40;99.90;;;;;;4999840;28;20116;-64
2023/10/09 01:37:30;;;;;;;0.20;0.20;;;15.40;99.90;;;;;;5003398;28;20405;-64
2023/10/09 01:40:24;;;;;;;1.55;1.10;;;15.40;99.90;;;;;;5000740;28;20085;-64
2023/10/09 01:42:45;;;;;;;2.65;1.65;;;15.40;99.90;;;;;;5001712;28;20058;-64
2023/10/09 01:47:40;;;;;;;0.88;0.85;;;15.40;99.90;;;;;;5000645;28;20045;-64
2023/10/09 01:50:20;;;;;;;0.88;0.68;;;15.40;99.90;;;;;;5008729;28;20100;-64
2023/10/09 01:52:45;;;;;;;0.38;0.38;;;15.40;99.90;;;;;;5006014;28;20379;-64
2023/10/09 01:58:05;;;;;;;0.57;0.57;;;15.40;99.90;;;;;;5006013;28;20100;-64
2023/10/09 02:00:42;;;;;;;3.10;0.95;;;15.40;99.90;;;;;;5006918;28;20053;-64
2023/10/09 02:03:13;;;;;;;1.65;1.17;;;15.40;99.90;;;;;;5002861;28;20042;-64
2023/10/09 02:05:39;;;;;;;0.30;0.30;;;15.40;99.90;;;;;;5007107;28;20053;-64
2023/10/09 02:08:05;;;;;;;4.78;0.68;;;15.40;99.90;;;;;;5001269;28;20492;-64
2023/10/09 02:10:32;;;;;;;2.35;1.02;;;15.40;99.90;;;;;;5005441;28;20044;-64
2023/10/09 02:13:11;;;;;;;0.10;0.10;;;15.40;99.90;;;;;;4996449;28;20061;-64
2023/10/09 02:23:30;;;;;;;0.52;0.52;;;15.30;99.90;;;;;;5002269;28;20045;-64
2023/10/09 02:26:04;;;;;;;0.35;0.35;;;15.30;99.90;;;;;;4994748;28;20401;-64
2023/10/09 02:28:32;;;;;;;0.38;0.38;;;15.30;99.90;;;;;;4998033;28;20050;-64
2023/10/09 02:31:00;;;;;;;0.45;0.20;;;15.30;99.90;;;;;;4999710;28;20487;-64
2023/10/09 02:33:30;;;;;;;0.15;0.15;;;15.30;99.90;;;;;;5002040;28;20053;-64
2023/10/09 02:35:59;;;;;;;0.60;0.57;;;15.30;99.90;;;;;;5002454;28;20046;-64
2023/10/09 02:38:26;;;;;;;0.20;0.20;;;15.30;99.90;;;;;;5004521;28;20104;-64
2023/10/09 02:41:34;;;;;;;1.83;1.23;;;15.30;99.90;;;;;;4992370;28;20795;-64
2023/10/09 02:43:44;;;;;;;0.88;0.82;;;15.30;99.90;;;;;;4996010;28;20046;-64
2023/10/09 02:46:18;;;;;;;4.15;0.70;;;15.30;99.90;;;;;;5001281;28;20049;-64
2023/10/09 02:48:50;;;;;;;0.10;0.10;;;15.40;99.90;;;;;;5002589;28;20042;-64
2023/10/09 02:53:57;;;;;;;0.10;0.10;;;15.30;99.90;;;;;;5001938;28;20109;-64
2023/10/09 02:56:24;;;;;;;0.00;0.00;;;15.30;99.90;;;;;;5001985;28;20095;-64
2023/10/09 02:58:51;;;;;;;0.75;0.75;;;15.30;99.90;;;;;;4993801;28;20560;-64
2023/10/09 03:01:16;;;;;;;0.30;0.30;;;15.30;99.90;;;;;;4997779;28;20042;-64
2023/10/09 03:03:46;;;;;;;0.00;0.00;;;15.30;99.90;;;;;;5002501;28;20057;-64
2023/10/09 03:06:28;;;;;;;0.20;0.20;;;15.40;99.90;;;;;;5005550;28;20039;-64
2023/10/09 03:08:54;;;;;;;0.30;0.30;;;15.40;99.90;;;;;;4997026;28;20065;-64
2023/10/09 03:11:20;;;;;;;1.10;1.05;;;15.40;99.90;;;;;;5000763;28;20399;-64
2023/10/09 03:13:47;;;;;;;0.25;0.25;;;15.40;99.90;;;;;;5002691;28;20398;-64
2023/10/09 03:16:19;;;;;;;1.17;0.85;;;15.40;99.90;;;;;;4994870;28;20046;-64
2023/10/09 03:18:47;;;;;;;0.55;0.35;;;15.40;99.90;;;;;;4999311;28;20078;-64
2023/10/09 03:21:14;;;;;;;0.90;0.90;;;15.40;99.90;;;;;;5008824;28;20050;-64
2023/10/09 03:23:49;;;;;;;0.30;0.30;;;15.40;99.90;;;;;;5003343;28;20046;-64
2023/10/09 03:26:17;;;;;;;0.73;0.73;;;15.30;99.90;;;;;;4994883;28;20042;-64
2023/10/09 03:28:45;;;;;;;0.73;0.73;;;15.40;99.90;;;;;;5000579;28;20049;-64
2023/10/09 03:31:11;;;;;;;0.10;0.10;;;15.40;99.90;;;;;;4998086;28;20050;-64
2023/10/09 03:33:38;;;;;;;0.95;0.90;;;15.40;99.90;;;;;;5007744;28;20049;-64
2023/10/09 03:36:07;;;;;;;0.13;0.13;;;15.50;99.90;;;;;;5000113;28;20050;-64
2023/10/09 03:38:34;;;;;;;0.75;0.63;;;15.50;99.90;;;;;;5004495;28;20078;-64
2023/10/09 03:41:09;;;;;;;1.10;0.70;;;15.60;99.90;;;;;;5005622;28;20050;-64
2023/10/09 03:43:38;;;;;;;0.17;0.17;;;15.60;99.90;;;;;;4998911;28;20046;-64
2023/10/09 03:46:08;;;;;;;1.35;0.95;;;15.60;99.90;;;;;;4998734;28;20046;-65
2023/10/09 03:48:36;;;;;;;0.10;0.10;;;15.60;99.90;;;;;;5005496;28;20495;-64
2023/10/09 03:51:13;;;;;;;0.10;0.10;;;15.70;99.90;;;;;;5010371;28;20494;-64
2023/10/09 03:53:39;;;;;;;0.13;0.13;;;15.70;99.90;;;;;;5001122;28;20121;-64
2023/10/09 03:56:15;;;;;;;0.00;0.00;;;15.80;99.90;;;;;;5005281;28;20057;-64
2023/10/09 03:58:45;;;;;;;0.57;0.57;;;15.80;99.90;;;;;;5000331;28;20045;-64
2023/10/09 04:01:27;;;;;;;0.22;0.22;;;15.80;99.90;;;;;;5000239;28;20050;-64
2023/10/09 04:03:59;;;;;;;3.40;0.98;;;15.90;99.90;;;;;;5003599;28;20038;-64
2023/10/09 04:06:32;;;;;;;0.43;0.43;;;15.90;99.90;;;;;;5005031;28;20077;-64
2023/10/09 04:11:46;;;;;;;0.63;0.38;;;15.90;99.90;;;;;;4998823;28;20050;-64
2023/10/09 04:14:32;;;;;;;0.10;0.10;;;15.90;99.90;;;;;;5000990;28;20127;-64
2023/10/09 04:17:06;;;;;;;0.10;0.10;;;16.00;99.90;;;;;;5002036;28;20046;-64
2023/10/09 04:19:38;;;;;;;;;;;16.00;99.90;;;;;;5012206;28;20046;-64
2023/10/09 04:22:09;;;;;;;0.32;0.32;;;16.00;99.90;;;;;;4992798;28;19922;-64
2023/10/09 04:24:48;;;;;;;0.00;0.00;;;16.00;99.90;;;;;;5000779;28;20089;-64
2023/10/09 04:27:16;;;;;;;0.47;0.47;;;16.00;99.90;;;;;;5002019;28;20056;-64
2023/10/09 04:29:46;;;;;;;0.00;0.00;;;16.10;99.90;;;;;;5002473;28;20458;-64
2023/10/09 04:32:18;;;;;;;0.03;0.03;;;16.10;99.90;;;;;;5003647;28;20054;-64
2023/10/09 04:34:48;;;;;;;0.00;0.00;;;16.10;99.90;;;;;;5004134;28;20073;-64
2023/10/09 04:39:47;;;;;;;0.55;0.20;;;16.10;99.90;;;;;;5007923;28;20057;-64
2023/10/09 04:42:36;;;;;;;0.07;0.07;;;16.10;99.90;;;;;;5001669;28;20054;-64
2023/10/09 04:47:35;;;;;;;0.00;0.00;;;16.10;99.90;;;;;;5004499;28;20080;-64
2023/10/09 04:50:11;;;;;;;0.00;0.00;;;16.10;99.90;;;;;;5007111;28;20042;-64
2023/10/09 05:08:21;;;;;;;0.17;0.17;;;16.10;99.90;;;;;;5001210;28;20060;-64
2023/10/09 05:13:42;;;;;;;0.30;0.30;;;16.10;99.90;;;;;;4999849;28;20518;-64
2023/10/09 05:16:26;;;;;;;0.13;0.13;;;16.20;99.90;;;;;;5007709;28;20060;-64
2023/10/09 05:18:56;;;;;;;1.88;1.15;;;16.10;99.90;;;;;;5010116;28;20042;-64
2023/10/09 05:21:44;;;;;;;0.30;0.30;;;16.10;99.90;;;;;;4993863;28;20078;-64
2023/10/09 05:29:34;;;;;;;1.95;1.75;;;16.20;99.90;;;;;;5000701;28;20053;-64
2023/10/09 05:35:07;;;;;;;0.38;0.38;;;16.10;99.90;;;;;;5005476;28;20042;-64
2023/10/09 05:37:33;;;;;;;0.00;0.00;;;16.20;99.90;;;;;;4998397;28;20046;-64
2023/10/09 06:03:54;;;;;;;0.25;0.22;;;16.20;99.90;;;;;;5000081;28;20046;-64
2023/10/09 06:06:33;;;;;;;0.52;0.52;;;16.20;99.90;;;;;;5000382;28;20405;-64
2023/10/09 06:11:41;;;;;;;0.70;0.70;;;16.20;99.90;;;;;;5004821;28;20045;-64
2023/10/09 06:16:43;;;;;;;0.00;0.00;;;16.20;99.90;;;;;;5001519;28;20046;-64
2023/10/09 06:24:18;;;;;;;0.10;0.10;;;16.20;99.90;;;;;;5006866;28;20150;-64
2023/10/09 06:27:12;;;;;;;0.45;0.40;;;16.20;99.90;;;;;;5003823;28;20494;-64
2023/10/09 06:29:38;;;;;;;0.20;0.20;;;16.20;99.90;;;;;;5005377;28;20058;-64
2023/10/09 06:34:51;;;;;;;1.23;1.13;;;16.20;99.90;;;;;;5003495;28;20490;-64
2023/10/09 06:45:43;;;;;;;0.28;0.28;;;16.20;99.90;;;;;;5003044;28;20438;-64
2023/10/09 06:47:55;;;;;;;0.10;0.10;;;16.30;99.90;;;;;;5003820;28;20061;-65
2023/10/09 06:50:24;;;;;;;0.10;0.10;;;16.20;99.90;;;;;;5004424;28;20099;-64
2023/10/09 06:52:57;;;;;;;0.85;0.65;;;16.20;99.90;;;;;;4998532;28;20160;-64
2023/10/09 06:55:32;;;;;;;0.30;0.30;;;16.30;99.90;;;;;;5006058;28;20050;-64
2023/10/09 06:58:01;;;;;;;0.20;0.20;;;16.20;99.90;;;;;;5003519;28;20780;-64
2023/10/09 07:03:11;;;;;;;2.05;0.80;;;16.20;99.90;;;;;;4999974;28;20117;-65
2023/10/09 07:06:04;;;;;;;0.50;0.50;;;16.20;99.90;;;;;;4999380;28;20049;-64
2023/10/09 07:08:31;;;;;;;0.05;0.05;;;16.20;99.90;;;;;;5007908;28;20482;-64
2023/10/09 07:11:21;;;;;;;0.00;0.00;;;16.20;99.90;;;;;;4998995;28;20097;-64
2023/10/09 07:13:54;;;;;;;2.63;0.88;;;16.20;99.90;;;;;;4992662;28;20142;-64
2023/10/09 07:16:28;;;;;;;0.00;0.00;;;16.20;99.90;;;;;;5017299;28;20069;-64
2023/10/09 07:19:09;;;;;;;1.75;0.90;;;16.20;99.90;;;;;;5006393;28;20560;-64
2023/10/09 07:21:36;;;;;;;0.00;0.00;;;16.20;99.90;;;;;;5005765;28;20490;-64
2023/10/09 07:24:14;;;;;;;0.00;0.00;;;16.20;99.90;;;;;;5001215;28;20053;-64
2023/10/09 07:26:47;;;;;;;13.57;0.70;;;16.20;99.90;;;;;;4998899;28;20045;-64
2023/10/09 07:29:16;;;;;;;0.30;0.30;;;16.30;99.90;;;;;;5003708;28;20140;-64
2023/10/09 07:31:45;;;;;;;0.00;0.00;;;16.30;99.90;;;;;;5005562;28;20046;-64
2023/10/09 07:37:03;;;;;;;0.20;0.20;;;16.30;99.90;;;;;;5000608;28;20453;-64
2023/10/09 07:39:34;;;;;;;0.68;0.68;;;16.30;99.90;;;;;;5005615;28;20049;-64
2023/10/09 07:42:15;;;;;;;1.55;0.65;;;16.30;99.90;;;;;;5006987;28;20046;-64
2023/10/09 07:44:46;;;;;;;0.00;0.00;;;16.30;99.90;;;;;;5001619;28;20042;-64
2023/10/09 07:47:22;;;;;;;0.28;0.28;;;16.30;99.90;;;;;;5001887;28;20033;-64
2023/10/09 07:49:52;;;;;;;0.80;0.50;;;16.30;99.90;;;;;;5005630;28;20501;-64
2023/10/09 07:52:18;;;;;;;0.10;0.10;;;16.30;99.90;;;;;;5003688;28;20121;-64
2023/10/09 07:54:49;;;;;;;0.55;0.55;;;16.30;99.90;;;;;;4993239;28;20125;-64
2023/10/09 07:57:38;;;;;;;0.00;0.00;;;16.30;99.90;;;;;;5009103;28;20038;-64
2023/10/09 08:00:36;;;;;;;0.98;0.90;;;16.30;99.90;;;;;;5007208;28;20050;-64
2023/10/09 08:03:00;;;;;;;0.32;0.32;;;16.30;99.90;;;;;;4995007;28;20082;-64
2023/10/09 08:05:33;;;;;;;0.10;0.10;;;16.30;99.90;;;;;;5002855;28;21509;-64
2023/10/09 08:08:17;;;;;;;15.63;0.47;;;16.30;99.90;;;;;;5002125;28;20056;-64
2023/10/09 08:16:20;;;;;;;6.57;2.25;;;16.40;99.90;;;;;;4998924;28;20537;-64
2023/10/09 08:18:45;;;;;;;0.52;0.50;;;16.40;99.90;;;;;;5008883;28;20546;-65
2023/10/09 08:23:54;;;;;;;0.00;0.00;;;16.40;99.90;;;;;;5005530;28;20508;-65
2023/10/09 08:26:29;;;;;;;11.95;2.03;;;16.40;99.90;;;;;;5001300;28;20210;-64
2023/10/09 08:31:46;;;;;;;0.00;0.00;;;16.50;99.90;;;;;;5006434;28;20053;-65
2023/10/09 08:34:26;;;;;;;0.20;0.20;;;16.50;99.90;;;;;;5010460;28;20128;-64
2023/10/09 08:36:52;;;;;;;3.10;1.88;;;16.50;99.90;;;;;;5005882;28;20148;-64
2023/10/09 08:39:26;;;;;;;0.10;0.10;;;16.50;99.90;;;;;;5011350;28;20057;-64
2023/10/09 08:41:53;;;;;;;0.47;0.30;;;16.50;99.90;;;;;;5011108;28;20088;-64
2023/10/09 08:44:24;;;;;;;0.63;0.60;;;16.60;99.90;;;;;;5004551;28;20038;-64
2023/10/09 08:46:50;;;;;;;0.00;0.00;;;16.50;99.90;;;;;;5003116;28;20046;-64
2023/10/09 08:49:17;;;;;;;0.20;0.20;;;16.60;99.90;;;;;;5010282;28;20068;-65
2023/10/09 08:51:46;;;;;;;0.10;0.10;;;16.60;99.90;;;;;;5001107;28;20129;-65
2023/10/09 08:54:14;;;;;;;0.57;0.55;;;16.60;99.90;;;;;;5008467;28;20034;-65
2023/10/09 08:56:49;;;;;;;0.20;0.20;;;16.60;99.90;;;;;;5004354;28;20050;-64
2023/10/09 08:59:18;;;;;;;2.03;0.82;;;16.60;99.90;;;;;;5001725;28;20043;-64
2023/10/09 09:01:49;;;;;;;1.02;0.75;;;16.60;99.90;;;;;;5001575;28;20089;-65
2023/10/09 09:04:38;;;;;;;0.00;0.00;;;16.60;99.90;;;;;;5001657;28;20052;-65
2023/10/09 09:07:05;;;;;;;0.32;0.32;;;16.70;99.90;;;;;;4998241;28;20050;-64
2023/10/09 09:09:32;;;;;;;0.20;0.20;;;16.70;99.90;;;;;;5009785;28;20038;-64
2023/10/09 09:11:59;;;;;;;0.05;0.05;;;16.70;99.90;;;;;;5011273;28;20467;-65
2023/10/09 09:14:37;;;;;;;8.95;3.35;;;16.70;99.90;;;;;;5004451;28;20125;-65
2023/10/09 09:17:04;;;;;;;0.20;0.20;;;16.80;99.90;;;;;;5003224;28;20046;-65
2023/10/09 09:19:37;;;;;;;0.35;0.35;;;16.80;99.90;;;;;;5005101;28;20096;-65
2023/10/09 09:22:12;;;;;;;0.22;0.22;;;16.80;99.90;;;;;;5003793;28;20100;-64
2023/10/09 09:24:39;;;;;;;0.00;0.00;;;16.80;99.90;;;;;;5003401;28;20049;-64
2023/10/09 09:27:18;;;;;;;0.10;0.10;;;16.80;99.90;;;;;;5000783;28;20038;-64
2023/10/09 09:29:52;;;;;;;0.10;0.10;;;16.80;99.90;;;;;;5003369;28;20509;-64
2023/10/09 09:32:29;;;;;;;1.67;0.95;;;16.90;99.90;;;;;;5006903;28;20072;-64
2023/10/09 09:35:00;;;;;;;0.30;0.30;;;16.90;99.90;;;;;;5007990;28;20490;-64
2023/10/09 09:37:33;;;;;;;0.20;0.20;;;16.90;99.90;;;;;;5006693;28;20047;-64
2023/10/09 09:40:14;;;;;;;0.28;0.28;;;16.90;99.90;;;;;;5008373;28;20502;-64
2023/10/09 09:42:44;;;;;;;0.32;0.32;;;17.00;99.90;;;;;;5005605;28;20038;-64
2023/10/09 09:45:11;;;;;;;0.17;0.17;;;17.00;99.90;;;;;;5006149;28;20045;-64
2023/10/09 09:47:37;;;;;;;0.38;0.38;;;17.00;99.90;;;;;;5000618;28;20173;-64
2023/10/09 09:50:13;;;;;;;0.65;0.65;;;17.00;99.90;;;;;;5006647;28;20048;-64
2023/10/09 09:52:39;;;;;;;0.20;0.20;;;17.00;99.90;;;;;;4995890;28;20101;-64
2023/10/09 09:55:14;;;;;;;0.08;0.08;;;17.00;99.90;;;;;;5005710;28;20034;-64
2023/10/09 09:57:40;;;;;;;0.08;0.08;;;17.00;99.90;;;;;;5001512;28;20455;-64
2023/10/09 10:00:17;;;;;;;0.80;0.28;;;17.00;99.90;;;;;;5001921;28;20557;-64
2023/10/09 10:02:45;;;;;;;0.70;0.55;;;17.00;99.90;;;;;;5002648;28;20073;-64
2023/10/09 10:05:15;;;;;;;0.13;0.13;;;17.00;99.90;;;;;;5006651;28;20485;-64
2023/10/09 10:07:43;;;;;;;0.25;0.25;;;17.00;99.90;;;;;;5000494;28;20034;-64
2023/10/09 10:10:34;;;;;;;0.47;0.40;;;17.00;99.90;;;;;;5000748;28;20045;-65
2023/10/09 10:13:01;;;;;;;0.75;0.75;;;17.00;99.90;;;;;;4998910;28;20401;-64
2023/10/09 10:16:09;;;;;;;1.77;1.17;;;17.00;99.90;;;;;;4998602;28;20406;-64
2023/10/09 10:19:21;;;;;;;0.82;0.32;;;17.00;99.90;;;;;;5006706;28;20398;-64
2023/10/09 10:21:52;;;;;;;0.10;0.10;;;17.00;99.90;;;;;;5003611;28;20045;-64
2023/10/09 10:24:51;;;;;;;0.55;0.45;;;17.10;99.90;;;;;;5004284;28;20059;-64
2023/10/09 10:27:26;;;;;;;0.00;0.00;;;17.00;99.90;;;;;;5005316;28;20053;-64
2023/10/09 10:30:13;;;;;;;0.10;0.10;;;17.10;99.90;;;;;;4996340;28;20190;-64
2023/10/09 10:32:56;;;;;;;0.00;0.00;;;17.10;99.90;;;;;;5005557;28;20061;-64
2023/10/09 10:38:38;;;;;;;0.10;0.10;;;17.20;99.90;;;;;;4963100;28;20406;-64
2023/10/09 10:41:16;;;;;;;;;;;17.30;99.90;;;;;;4999787;28;20394;-64
2023/10/09 10:46:32;;;;;;;0.30;0.30;;;17.40;99.90;;;;;;5004723;28;20053;-64
2023/10/09 10:49:15;;;;;;;0.20;0.20;;;17.50;99.90;;;;;;4997927;28;20092;-64
2023/10/09 10:51:47;;;;;;;0.10;0.10;;;17.50;99.90;;;;;;4999342;28;20177;-64
2023/10/09 10:56:59;;;;;;;0.30;0.30;;;17.50;99.90;;;;;;4998448;28;20061;-64
2023/10/09 10:59:33;;;;;;;0.10;0.10;;;17.50;99.90;;;;;;5002958;28;21465;-64
2023/10/09 11:07:12;;;;;;;2.72;1.27;;;17.30;99.90;;;;;;5003207;28;20066;-64
2023/10/09 11:12:45;;;;;;;0.15;0.15;;;17.20;99.90;;;;;;5008551;28;20080;-64
2023/10/09 11:18:07;;;;;;;1.20;0.77;;;17.20;99.90;;;;;;5002398;28;20403;-63
2023/10/09 11:20:38;;;;;;;3.72;1.08;;;17.20;99.90;;;;;;4998028;28;20042;-64
2023/10/09 11:25:50;;;;;;;0.10;0.10;;;17.20;99.90;;;;;;5005242;28;20046;-64
2023/10/09 11:28:29;;;;;;;0.30;0.30;;;17.20;99.90;;;;;;5005262;28;20081;-64
2023/10/09 11:31:05;;;;;;;0.10;0.10;;;17.20;99.90;;;;;;5004832;28;20057;-64
2023/10/09 11:33:43;;;;;;;0.08;0.08;;;17.20;99.90;;;;;;4998555;28;20050;-64
2023/10/09 11:36:09;;;;;;;0.00;0.00;;;17.20;99.90;;;;;;5006368;28;20042;-64
2023/10/09 11:38:38;;;;;;;0.00;0.00;;;17.20;99.90;;;;;;4997388;28;20050;-64
2023/10/09 11:41:23;;;;;;;0.00;0.00;;;17.40;99.90;;;;;;5006740;28;20057;-64
2023/10/09 11:43:51;;;;;;;0.05;0.05;;;17.30;99.90;;;;;;5007351;28;20435;-64
2023/10/09 11:46:36;;;;;;;1.33;0.70;;;17.40;99.90;;;;;;4998062;28;20074;-64
2023/10/09 11:49:25;;;;;;;2.20;1.02;;;17.40;99.90;;;;;;5002633;28;20117;-64
2023/10/09 11:52:35;;;;;;;0.00;0.00;;;17.40;99.90;;;;;;4998096;28;20124;-64
2023/10/09 11:54:41;;;;;;;0.10;0.10;;;17.40;99.90;;;;;;4997230;28;20069;-64
2023/10/09 11:57:06;;;;;;;0.75;0.43;;;17.50;99.90;;;;;;4993315;28;20042;-64
2023/10/09 11:59:38;;;;;;;0.10;0.10;;;17.60;99.90;;;;;;4998302;28;20375;-64
2023/10/09 12:02:13;;;;;;;0.00;0.00;;;17.80;99.90;;;;;;5010937;28;20046;-64
2023/10/09 12:04:42;;;;;;;0.28;0.28;;;18.10;99.90;;;;;;5005394;28;20046;-64
2023/10/09 12:07:10;;;;;;;0.50;0.32;;;18.20;99.90;;;;;;5009009;28;20104;-64
2023/10/09 12:09:39;;;;;;;0.10;0.10;;;18.40;99.90;;;;;;5002093;28;20042;-64
2023/10/09 12:12:09;;;;;;;0.35;0.35;;;18.40;99.90;;;;;;5004880;28;20073;-64
2023/10/09 12:14:37;;;;;;;0.25;0.25;;;18.30;99.90;;;;;;5012064;28;20046;-64
2023/10/09 12:17:08;;;;;;;0.08;0.08;;;18.30;99.90;;;;;;5003925;28;20498;-64
2023/10/09 12:19:38;;;;;;;0.73;0.73;;;18.20;99.90;;;;;;5002231;28;20077;-64
2023/10/09 12:22:10;;;;;;;0.10;0.10;;;18.20;99.90;;;;;;5002700;28;20049;-64
2023/10/09 12:24:37;;;;;;;0.22;0.22;;;18.10;99.90;;;;;;5006234;28;20045;-64
2023/10/09 12:27:09;;;;;;;0.00;0.00;;;18.00;99.90;;;;;;5004903;28;20046;-64
2023/10/09 12:29:35;;;;;;;0.20;0.10;;;18.00;99.90;;;;;;5001994;28;20050;-64
2023/10/09 12:32:02;;;;;;;9.75;1.45;;;18.00;99.90;;;;;;5011297;28;20041;-64
2023/10/09 12:34:28;;;;;;;0.05;0.05;;;17.90;99.90;;;;;;5001245;28;20444;-64
2023/10/09 12:36:54;;;;;;;0.25;0.25;;;17.90;99.90;;;;;;5006452;28;20107;-64
2023/10/09 12:39:23;;;;;;;0.03;0.03;;;17.90;99.90;;;;;;5011515;28;20050;-64
2023/10/09 12:41:53;;;;;;;0.32;0.15;;;17.80;99.90;;;;;;5005758;28;20152;-64
2023/10/09 12:44:22;;;;;;;0.65;0.20;;;17.80;99.90;;;;;;5007934;28;20088;-64
2023/10/09 12:46:54;;;;;;;0.10;0.10;;;17.70;99.90;;;;;;4996540;28;20490;-64
2023/10/09 12:49:27;;;;;;;3.15;2.88;;;17.60;99.90;;;;;;5003967;28;20038;-65
2023/10/09 12:51:53;;;;;;;11.60;0.70;;;17.60;99.90;;;;;;5008741;28;20545;-65
2023/10/09 12:54:26;;;;;;;0.05;0.05;;;17.60;99.90;;;;;;5009435;28;20072;-64
2023/10/09 12:56:52;;;;;;;0.00;0.00;;;17.60;99.90;;;;;;5001471;28;20050;-65
2023/10/09 12:59:19;;;;;;;0.00;0.00;;;17.60;99.90;;;;;;5002098;28;20072;-64
2023/10/09 13:01:49;;;;;;;3.40;0.47;;;17.60;99.90;;;;;;5006563;28;20042;-65
2023/10/09 13:04:16;;;;;;;0.40;0.40;;;17.60;99.90;;;;;;5009197;28;20111;-65
2023/10/09 13:06:45;;;;;;;0.85;0.30;;;17.60;99.90;;;;;;5002974;28;20042;-64
2023/10/09 13:09:15;;;;;;;0.47;0.43;;;17.60;99.90;;;;;;5009858;28;20438;-65
2023/10/09 13:11:42;;;;;;;0.60;0.57;;;17.60;99.90;;;;;;4998805;28;20405;-64
2023/10/09 13:14:19;;;;;;;0.00;0.00;;;17.60;99.90;;;;;;5011943;28;20465;-64
2023/10/09 13:16:45;;;;;;;0.47;0.43;;;17.60;99.90;;;;;;5001319;28;20038;-64
2023/10/09 13:19:11;;;;;;;0.10;0.10;;;17.60;99.90;;;;;;5003755;28;20049;-65
2023/10/09 13:21:39;;;;;;;0.00;0.00;;;17.60;99.90;;;;;;4995190;28;20464;-65
2023/10/09 13:24:12;;;;;;;0.25;0.25;;;17.50;99.90;;;;;;5001955;28;20065;-64
2023/10/09 13:26:39;;;;;;;0.00;0.00;;;17.50;99.90;;;;;;5003441;28;20120;-64
2023/10/09 13:29:08;;;;;;;0.00;0.00;;;17.60;99.90;;;;;;5001357;28;20137;-64
2023/10/09 13:31:37;;;;;;;0.00;0.00;;;17.60;99.90;;;;;;5003189;28;20046;-64
2023/10/09 13:34:06;;;;;;;0.80;0.43;;;17.50;99.90;;;;;;5009926;28;20104;-64
2023/10/09 13:36:34;;;;;;;0.00;0.00;;;17.60;99.90;;;;;;5000244;28;20042;-64
2023/10/09 13:39:19;;;;;;;0.15;0.15;;;17.60;99.90;;;;;;5005977;28;20038;-64
2023/10/09 13:41:46;;;;;;;0.10;0.10;;;17.60;99.90;;;;;;5002090;28;20053;-65
2023/10/09 13:44:11;;;;;;;0.57;0.57;;;17.60;99.90;;;;;;5005728;28;20508;-64
2023/10/09 13:46:41;;;;;;;0.10;0.10;;;17.60;99.90;;;;;;5001725;28;20034;-64
2023/10/09 13:49:14;;;;;;;1.65;0.55;;;17.60;99.90;;;;;;5007068;28;20445;-64
2023/10/09 13:51:46;;;;;;;19.27;1.00;;;17.60;99.90;;;;;;5003632;28;20070;-64
2023/10/09 13:56:58;;;;;;;0.00;0.00;;;17.60;99.90;;;;;;5009743;28;20046;-64
2023/10/09 13:59:25;;;;;;;0.65;0.63;;;17.60;99.90;;;;;;4999897;28;20092;-64
2023/10/09 14:01:54;;;;;;;0.20;0.20;;;17.60;99.90;;;;;;5006965;28;20077;-64
2023/10/09 14:04:23;;;;;;;0.00;0.00;;;17.60;99.90;;;;;;5000921;28;20045;-64
2023/10/09 14:06:56;;;;;;;0.10;0.10;;;17.60;99.90;;;;;;4997946;28;20371;-64
2023/10/09 14:09:37;;;;;;;0.00;0.00;;;17.60;99.90;;;;;;4997808;28;20042;-64
2023/10/09 14:12:09;;;;;;;0.00;0.00;;;17.60;99.90;;;;;;4996254;28;20073;-64
2023/10/09 14:14:48;;;;;;;0.00;0.00;;;17.50;99.90;;;;;;5003608;28;20046;-64
2023/10/09 14:17:24;;;;;;;0.00;0.00;;;17.60;99.90;;;;;;5007737;28;20061;-64
2023/10/09 14:19:51;;;;;;;0.30;0.30;;;17.50;99.90;;;;;;4999008;28;20061;-64
2023/10/09 14:22:19;;;;;;;2.28;1.20;;;17.50;99.90;;;;;;5006114;28;20053;-64
2023/10/09 14:24:46;;;;;;;0.28;0.28;;;17.50;99.90;;;;;;5007480;28;20156;-64
2023/10/09 14:27:18;;;;;;;0.22;0.22;;;17.60;99.90;;;;;;4999355;28;20042;-64
2023/10/09 14:29:48;;;;;;;2.03;1.85;;;17.60;99.90;;;;;;5004234;28;20384;-64
2023/10/09 14:32:14;;;;;;;0.00;0.00;;;17.70;99.90;;;;;;5025371;28;20042;-64
2023/10/09 14:34:46;;;;;;;0.10;0.10;;;17.60;99.90;;;;;;5006333;28;20049;-64
2023/10/09 14:37:14;;;;;;;0.43;0.28;;;17.60;99.90;;;;;;5000737;28;20121;-64
2023/10/09 14:39:41;;;;;;;0.10;0.10;;;17.60;99.90;;;;;;5007034;28;20038;-64
2023/10/09 14:42:10;;;;;;;0.43;0.20;;;17.50;99.90;;;;;;5004449;28;20093;-64
2023/10/09 14:44:40;;;;;;;0.40;0.38;;;17.50;99.90;;;;;;4998062;28;20042;-64
2023/10/09 14:47:06;;;;;;;0.55;0.52;;;17.40;99.90;;;;;;5005969;28;20404;-64
2023/10/09 14:49:37;;;;;;;1.67;1.10;;;17.40;99.90;;;;;;5000962;28;20064;-64
2023/10/09 14:52:08;;;;;;;0.15;0.15;;;17.40;99.90;;;;;;4997938;28;20034;-64
2023/10/09 14:54:34;;;;;;;0.00;0.00;;;17.50;99.90;;;;;;5001998;28;20049;-64
2023/10/09 14:57:00;;;;;;;0.13;0.13;;;17.50;99.90;;;;;;5003997;28;20089;-64
2023/10/09 14:59:25;;;;;;;0.32;0.28;;;17.50;99.90;;;;;;5005121;28;20125;-64
2023/10/09 15:01:53;;;;;;;0.00;0.00;;;17.50;99.90;;;;;;5013168;28;20046;-64
2023/10/09 15:04:19;;;;;;;0.00;0.00;;;17.50;99.90;;;;;;5002177;28;20398;-64
2023/10/09 15:06:49;;;;;;;0.00;0.00;;;17.50;99.90;;;;;;5002409;28;20129;-64
2023/10/09 15:09:28;;;;;;;0.00;0.00;;;17.50;99.90;;;;;;5009530;28;20469;-64
2023/10/09 15:11:54;;;;;;;0.00;0.00;;;17.50;99.90;;;;;;5009259;28;20038;-64
2023/10/09 15:14:20;;;;;;;0.00;0.00;;;17.50;99.90;;;;;;5004837;28;20050;-64
2023/10/09 15:16:47;;;;;;;0.00;0.00;;;17.50;99.90;;;;;;4999315;28;20257;-64
2023/10/09 15:19:13;;;;;;;2.45;1.45;;;17.40;99.90;;;;;;4998052;28;20073;-64
2023/10/09 15:21:45;;;;;;;0.05;0.05;;;17.40;99.90;;;;;;5004029;28;20049;-64
2023/10/09 15:24:15;;;;;;;0.00;0.00;;;17.50;99.90;;;;;;4999719;28;20085;-64
2023/10/09 15:26:42;;;;;;;0.00;0.00;;;17.40;99.90;;;;;;5000739;28;20042;-64
2023/10/09 15:29:09;;;;;;;0.00;0.00;;;17.40;99.90;;;;;;4999585;28;20064;-64
2023/10/09 15:31:40;;;;;;;0.00;0.00;;;17.40;99.90;;;;;;4996850;28;20041;-64
2023/10/09 15:34:08;;;;;;;0.08;0.08;;;17.40;99.90;;;;;;5003508;28;20077;-64
2023/10/09 15:36:35;;;;;;;0.28;0.28;;;17.30;99.90;;;;;;5010043;28;20181;-64